Time;durP1;ratioP1;P1;durP2;ratioP2;P2;SDS_P1;SDS_P2;PMS_P1;PMS_P2;Temp;Humidity;BMP_temperature;BMP_pressure;BME280_temperature;BME280_humidity;BME280_pressure;Samples;Min_cycle;Max_cycle;Signal;HPM_P1;HPM_P2
2021/12/15 00:01:10;;;;;;;6.43;2.60;;;;;;;9.71;77.66;101174.56;5000822;28;20046;-52
2021/12/15 00:03:38;;;;;;;9.55;2.47;;;;;;;9.69;77.47;101187.47;5000411;28;20042;-50
2021/12/15 00:06:12;;;;;;;6.57;2.97;;;;;;;9.66;77.25;101192.56;5004824;28;20577;-51
2021/12/15 00:08:41;;;;;;;6.57;2.33;;;;;;;9.65;78.01;101190.84;4997453;28;20053;-51
2021/12/15 00:11:08;;;;;;;7.57;2.75;;;;;;;9.64;77.77;101184.81;5003280;28;21644;-54
2021/12/15 00:13:37;;;;;;;6.13;2.30;;;;;;;9.59;77.82;101191.59;5000011;28;20498;-52
2021/12/15 00:16:05;;;;;;;5.30;2.47;;;;;;;9.58;77.63;101194.16;4998644;28;20049;-49
2021/12/15 00:18:32;;;;;;;9.10;2.67;;;;;;;9.58;77.76;101188.97;5004443;28;20107;-49
2021/12/15 00:20:59;;;;;;;8.00;2.75;;;;;;;9.56;77.73;101185.50;5002312;28;20101;-53
2021/12/15 00:23:27;;;;;;;6.07;3.13;;;;;;;9.54;77.30;101185.47;4999712;28;20625;-51
2021/12/15 00:25:53;;;;;;;7.50;3.33;;;;;;;9.54;77.51;101189.75;5005867;28;20092;-51
2021/12/15 00:28:20;;;;;;;7.50;2.38;;;;;;;9.51;77.46;101187.97;5004228;28;20046;-52
2021/12/15 00:30:47;;;;;;;7.35;2.72;;;;;;;9.49;77.61;101195.72;5006508;28;20062;-50
2021/12/15 00:33:13;;;;;;;5.63;1.60;;;;;;;9.49;77.50;101189.69;5001737;28;20520;-49
2021/12/15 00:35:40;;;;;;;8.48;2.58;;;;;;;9.47;77.52;101184.47;5005003;28;20053;-51
2021/12/15 00:38:07;;;;;;;4.40;1.60;;;;;;;9.45;77.48;101188.72;5000876;28;20057;-52
2021/12/15 00:40:34;;;;;;;4.93;2.25;;;;;;;9.45;77.88;101177.50;5012928;28;20060;-51
2021/12/15 00:43:02;;;;;;;5.18;1.45;;;;;;;9.41;77.84;101174.00;5001679;28;20122;-52
2021/12/15 00:45:29;;;;;;;4.13;1.23;;;;;;;9.40;77.36;101169.69;5003784;28;20046;-54
2021/12/15 00:47:57;;;;;;;4.50;1.80;;;;;;;9.40;77.49;101169.69;5002701;28;20073;-55
2021/12/15 00:50:32;;;;;;;4.63;1.83;;;;;;;9.36;77.67;101166.13;4998704;28;20494;-53
2021/12/15 00:52:59;;;;;;;5.05;1.88;;;;;;;9.34;77.65;101166.94;5007028;28;20556;-53
2021/12/15 00:55:28;;;;;;;5.28;1.70;;;;;;;9.32;77.80;101160.91;4999395;28;20088;-52
2021/12/15 00:57:54;;;;;;;7.10;1.77;;;;;;;9.30;77.45;101158.28;4999585;28;20092;-53
2021/12/15 01:00:30;;;;;;;4.40;1.40;;;;;;;9.28;77.75;101159.94;5001960;28;20085;-53
2021/12/15 01:02:58;;;;;;;3.50;1.60;;;;;;;9.27;77.73;101163.38;5002971;28;20046;-53
2021/12/15 01:05:35;;;;;;;19.92;5.13;;;;;;;9.29;77.72;101161.69;5003223;28;20136;-55
2021/12/15 01:08:07;;;;;;;15.18;3.38;;;;;;;9.30;77.82;101170.31;5002699;28;20056;-53
2021/12/15 01:11:02;;;;;;;13.98;3.58;;;;;;;9.32;78.18;101182.44;4999850;28;20093;-53
2021/12/15 01:21:45;;;;;;;25.02;5.60;;;;;;;9.35;77.62;101182.50;4998603;28;20108;-51
2021/12/15 01:24:12;;;;;;;24.67;5.88;;;;;;;9.34;77.48;101187.63;4999559;28;20054;-52
2021/12/15 01:26:39;;;;;;;21.60;4.80;;;;;;;9.36;77.45;101184.25;4997876;28;20077;-52
2021/12/15 01:29:06;;;;;;;24.17;5.13;;;;;;;9.35;78.18;101187.66;4997003;28;20118;-51
2021/12/15 01:31:32;;;;;;;15.07;4.63;;;;;;;9.36;77.74;101189.41;4998527;28;20054;-52
2021/12/15 01:34:00;;;;;;;8.50;2.72;;;;;;;9.35;77.67;101197.13;4997488;28;20133;-54
2021/12/15 01:36:26;;;;;;;5.95;2.30;;;;;;;9.37;77.54;101200.63;5004707;28;20038;-51
2021/12/15 01:38:53;;;;;;;4.25;2.30;;;;;;;9.39;77.39;101193.75;5002019;28;20053;-50
2021/12/15 01:41:22;;;;;;;4.93;3.17;;;;;;;9.40;77.43;101195.53;5001058;28;20773;-54
2021/12/15 01:46:54;;;;;;;5.45;2.60;;;;;;;9.41;77.58;101202.44;4987748;28;20037;-55
2021/12/15 01:49:37;;;;;;;;;;;;;;;9.29;78.00;101207.38;5003742;28;20057;-53
2021/12/15 01:52:23;;;;;;;5.78;2.13;;;;;;;9.34;77.47;101211.78;5003653;28;20369;-51
2021/12/15 01:54:58;;;;;;;8.52;2.38;;;;;;;9.35;77.37;101207.47;4997015;28;20062;-49
2021/12/15 01:57:27;;;;;;;6.35;2.33;;;;;;;9.36;77.09;101217.84;5002254;28;20496;-52
2021/12/15 01:59:56;;;;;;;7.78;2.53;;;;;;;9.36;77.61;101219.59;5000011;28;20049;-52
2021/12/15 02:02:24;;;;;;;9.20;2.25;;;;;;;9.36;77.47;101219.59;5003507;28;20555;-50
2021/12/15 02:04:53;;;;;;;6.68;2.30;;;;;;;9.38;77.50;101220.47;5004067;28;20081;-51
2021/12/15 02:07:22;;;;;;;9.32;2.58;;;;;;;9.37;77.61;101223.91;5002156;28;20533;-48
2021/12/15 02:10:05;;;;;;;6.57;2.17;;;;;;;9.40;77.61;101226.56;4997146;28;20100;-49
2021/12/15 02:12:51;;;;;;;;;;;;;;;9.30;77.80;101229.78;5001981;28;20070;-54
2021/12/15 02:15:24;;;;;;;7.20;2.25;;;;;;;9.36;77.12;101229.94;4998463;28;19925;-51
2021/12/15 02:17:51;;;;;;;6.13;2.22;;;;;;;9.37;77.46;101236.84;4998478;28;20045;-53
2021/12/15 02:20:20;;;;;;;6.00;1.70;;;;;;;9.36;77.28;101241.13;5005172;28;20096;-52
2021/12/15 02:22:47;;;;;;;5.38;1.90;;;;;;;9.37;77.34;101236.84;4996772;28;20556;-52
2021/12/15 02:25:15;;;;;;;7.15;2.20;;;;;;;9.37;77.17;101242.00;5002070;28;20077;-53
2021/12/15 02:27:42;;;;;;;5.22;1.73;;;;;;;9.36;77.31;101240.28;4999235;28;20046;-53
2021/12/15 02:30:26;;;;;;;5.15;1.70;;;;;;;9.36;76.85;101240.28;5000676;28;20049;-53
2021/12/15 02:33:06;;;;;;;3.50;1.38;;;;;;;9.33;77.01;101240.19;4999911;28;20097;-50
2021/12/15 02:38:32;;;;;;;3.78;1.55;;;;;;;9.30;76.78;101247.88;4989807;28;20050;-49
2021/12/15 02:41:07;;;;;;;4.75;1.45;;;;;;;9.32;76.84;101241.03;4985172;28;20096;-51
2021/12/15 02:43:34;;;;;;;3.80;1.73;;;;;;;9.32;76.59;101238.47;4995216;28;20042;-53
2021/12/15 02:46:01;;;;;;;4.18;1.65;;;;;;;9.33;76.42;101240.19;5002185;28;20084;-49
2021/12/15 02:48:28;;;;;;;4.72;1.15;;;;;;;9.33;76.52;101235.03;5000289;28;20045;-54
2021/12/15 02:50:55;;;;;;;4.10;1.52;;;;;;;9.35;76.24;101235.91;5004340;28;20105;-53
2021/12/15 02:53:22;;;;;;;3.75;1.35;;;;;;;9.35;76.27;101234.22;5006712;28;20057;-53
2021/12/15 02:55:49;;;;;;;3.42;1.20;;;;;;;9.33;76.35;101232.44;5000813;28;20049;-52
2021/12/15 02:58:19;;;;;;;4.95;1.27;;;;;;;9.34;75.82;101237.66;5001300;28;20060;-52
2021/12/15 03:00:56;;;;;;;4.00;1.73;;;;;;;9.32;76.08;101233.28;4996289;28;20051;-52
2021/12/15 03:03:53;;;;;;;5.95;1.38;;;;;;;9.33;75.98;101235.03;5002354;28;23654;-53
2021/12/15 03:06:17;;;;;;;2.20;1.00;;;;;;;9.32;76.18;101233.28;4995950;28;20058;-55
2021/12/15 03:08:52;;;;;;;3.28;1.38;;;;;;;9.32;76.00;101241.03;5001177;28;20045;-54
2021/12/15 03:16:58;;;;;;;2.92;0.70;;;;;;;9.23;76.12;101229.63;5005751;28;21165;-53
2021/12/15 03:19:25;;;;;;;5.25;1.13;;;;;;;9.21;76.09;101230.44;5002542;28;20054;-52
2021/12/15 03:21:52;;;;;;;4.70;1.35;;;;;;;9.23;75.88;101234.81;5002564;28;20100;-52
2021/12/15 03:24:21;;;;;;;3.97;0.82;;;;;;;9.25;75.82;101245.19;5008245;28;20042;-53
2021/12/15 03:26:59;;;;;;;3.90;1.05;;;;;;;9.23;76.23;101239.97;5004386;28;20109;-48
2021/12/15 03:35:18;;;;;;;6.82;0.93;;;;;;;9.26;75.94;101240.06;5001645;28;20058;-52
2021/12/15 03:37:53;;;;;;;2.10;0.68;;;;;;;9.24;75.58;101240.84;5001743;28;20046;-52
2021/12/15 03:40:25;;;;;;;3.90;1.95;;;;;;;9.26;75.73;101249.53;5002270;28;20441;-52
2021/12/15 03:42:56;;;;;;;4.93;0.93;;;;;;;9.28;75.33;101252.16;5001353;28;20097;-53
2021/12/15 03:45:31;;;;;;;3.28;0.90;;;;;;;9.25;75.03;101247.78;5004949;28;20053;-53
2021/12/15 03:48:04;;;;;;;6.15;1.65;;;;;;;9.22;75.28;101246.00;5003264;28;20644;-54
2021/12/15 03:50:32;;;;;;;2.22;0.82;;;;;;;9.25;75.52;101248.66;5002619;28;20081;-53
2021/12/15 03:52:59;;;;;;;2.70;1.02;;;;;;;9.25;75.34;101242.59;5003912;28;20076;-54
2021/12/15 03:55:30;;;;;;;3.90;1.20;;;;;;;9.24;75.58;101246.91;4998855;28;20045;-52
2021/12/15 03:57:58;;;;;;;2.70;1.05;;;;;;;9.26;75.48;101247.81;5002728;28;20096;-52
2021/12/15 04:00:28;;;;;;;3.22;0.70;;;;;;;9.25;75.46;101248.66;5000025;28;20053;-54
2021/12/15 04:02:55;;;;;;;3.42;0.85;;;;;;;9.25;75.30;101251.25;4998331;28;20086;-53
2021/12/15 04:05:22;;;;;;;2.30;1.00;;;;;;;9.27;75.30;101256.44;4996172;28;20120;-52
2021/12/15 04:07:50;;;;;;;3.75;0.93;;;;;;;9.26;75.51;101260.72;5000758;28;20038;-54
2021/12/15 04:10:20;;;;;;;2.10;1.13;;;;;;;9.25;75.38;101261.59;4998921;28;20050;-50
2021/12/15 04:12:48;;;;;;;3.17;1.08;;;;;;;9.25;75.35;101264.16;5001306;28;20053;-52
2021/12/15 04:15:27;;;;;;;2.40;0.90;;;;;;;9.24;75.41;101259.84;5001487;28;20045;-51
2021/12/15 04:17:59;;;;;;;4.65;0.93;;;;;;;9.22;75.84;101258.06;5001324;28;20053;-49
2021/12/15 04:20:33;;;;;;;1.67;0.82;;;;;;;9.20;75.22;101259.72;4984613;28;20054;-52
2021/12/15 04:23:02;;;;;;;3.08;0.90;;;;;;;9.21;75.63;101259.78;4999332;28;20466;-52
2021/12/15 04:25:32;;;;;;;3.85;1.75;;;;;;;9.21;75.54;101262.34;4998906;28;20555;-55
2021/12/15 04:28:08;;;;;;;3.83;0.82;;;;;;;9.19;76.01;101264.00;4999574;28;20046;-53
2021/12/15 04:30:38;;;;;;;5.88;1.25;;;;;;;9.21;75.81;101271.81;5004883;28;20108;-55
2021/12/15 04:33:16;;;;;;;4.65;2.28;;;;;;;9.20;75.24;101281.28;5001149;28;20421;-52
2021/12/15 04:35:44;;;;;;;4.13;1.58;;;;;;;9.23;76.05;101285.66;5002511;28;20054;-51
2021/12/15 04:38:12;;;;;;;3.58;1.20;;;;;;;9.23;75.59;101286.50;5003300;28;20132;-50
2021/12/15 04:40:40;;;;;;;5.93;1.98;;;;;;;9.24;75.16;101282.22;4997466;28;21350;-53
2021/12/15 04:43:07;;;;;;;4.68;1.60;;;;;;;9.24;75.27;101275.34;5003984;28;20522;-49
2021/12/15 04:45:34;;;;;;;4.15;1.30;;;;;;;9.24;75.74;101272.78;5001946;28;20058;-48
2021/12/15 04:48:01;;;;;;;4.55;1.23;;;;;;;9.25;75.88;101274.50;5000591;28;20498;-54
2021/12/15 04:50:30;;;;;;;3.90;1.15;;;;;;;9.25;75.51;101271.94;4998214;28;20053;-54
2021/12/15 04:53:00;;;;;;;5.57;1.77;;;;;;;9.25;75.63;101274.50;4998074;28;20556;-55
2021/12/15 04:55:29;;;;;;;3.10;1.40;;;;;;;9.25;75.88;101284.84;5002536;28;20111;-51
2021/12/15 04:57:57;;;;;;;7.15;2.00;;;;;;;9.25;75.49;101277.09;5001019;28;20033;-51
2021/12/15 05:00:29;;;;;;;6.68;2.17;;;;;;;9.25;75.09;101279.69;4999722;28;20050;-53
2021/12/15 05:02:57;;;;;;;7.45;2.28;;;;;;;9.26;75.65;101276.25;5002056;28;20162;-56
2021/12/15 05:05:28;;;;;;;5.22;2.28;;;;;;;9.26;75.17;101290.91;5003669;28;20425;-51
2021/12/15 05:07:54;;;;;;;;;;;;;;;9.14;76.12;101291.47;4999763;28;20042;-51
2021/12/15 05:10:22;;;;;;;4.22;1.73;;;;;;;9.22;75.81;101289.94;5003442;28;22223;-55
2021/12/15 05:12:49;;;;;;;10.70;2.97;;;;;;;9.24;75.80;101295.16;5002383;28;20465;-52
2021/12/15 05:15:16;;;;;;;5.43;1.90;;;;;;;9.23;75.78;101286.50;5001563;28;20053;-54
2021/12/15 05:17:43;;;;;;;5.38;1.88;;;;;;;9.23;75.66;101291.69;5003529;28;20545;-55
2021/12/15 05:20:11;;;;;;;5.40;2.10;;;;;;;9.23;75.52;101291.69;5000212;28;20059;-50
2021/12/15 05:22:39;;;;;;;7.30;1.98;;;;;;;9.24;75.63;101301.22;5002545;28;20049;-53
2021/12/15 05:25:07;;;;;;;5.20;1.48;;;;;;;9.24;75.80;101288.28;4999101;28;20046;-53
2021/12/15 05:27:35;;;;;;;8.32;1.88;;;;;;;9.25;75.99;101295.19;5002011;28;20128;-51
2021/12/15 05:30:04;;;;;;;4.40;1.30;;;;;;;9.25;75.59;101289.13;4999273;28;20054;-52
2021/12/15 05:32:31;;;;;;;5.90;2.05;;;;;;;9.25;75.74;101299.47;4997676;28;20058;-51
2021/12/15 05:34:59;;;;;;;4.53;1.45;;;;;;;9.25;75.93;101300.38;5001675;28;20054;-51
2021/12/15 05:37:27;;;;;;;6.22;1.48;;;;;;;9.26;75.62;101299.50;5001363;28;20101;-52
2021/12/15 05:39:55;;;;;;;4.45;1.23;;;;;;;9.26;76.16;101290.91;5000772;28;20537;-53
2021/12/15 05:42:23;;;;;;;5.05;1.52;;;;;;;9.25;75.79;101295.19;4999872;28;20092;-54
2021/12/15 05:44:51;;;;;;;6.78;2.10;;;;;;;9.24;75.58;101293.44;5000618;28;20109;-53
2021/12/15 05:47:19;;;;;;;3.33;1.55;;;;;;;9.24;75.84;101290.88;4998180;28;20053;-51
2021/12/15 05:49:48;;;;;;;8.93;1.60;;;;;;;9.24;76.00;101285.69;4997658;28;20057;-53
2021/12/15 05:52:14;;;;;;;3.33;1.40;;;;;;;9.23;75.96;101291.69;4995415;28;20540;-51
2021/12/15 05:54:41;;;;;;;5.05;1.60;;;;;;;9.23;76.27;101285.66;4996043;28;20103;-54
2021/12/15 05:57:08;;;;;;;7.78;2.78;;;;;;;9.22;76.06;101295.13;5008728;28;20438;-53
2021/12/15 05:59:36;;;;;;;5.68;1.48;;;;;;;9.23;76.77;101299.44;4994549;28;20042;-52
2021/12/15 06:02:03;;;;;;;4.47;1.48;;;;;;;9.23;76.07;101294.25;5000689;28;20050;-52
2021/12/15 06:04:30;;;;;;;6.28;1.25;;;;;;;9.25;76.11;101292.59;4995797;28;20097;-54
2021/12/15 06:06:57;;;;;;;7.15;2.00;;;;;;;9.26;76.31;101296.94;4996882;28;20049;-54
2021/12/15 06:09:24;;;;;;;5.55;1.77;;;;;;;9.25;76.37;101300.38;5003976;28;20046;-54
2021/12/15 06:11:53;;;;;;;5.28;1.40;;;;;;;9.27;76.54;101302.97;5003151;28;20092;-54
2021/12/15 06:14:24;;;;;;;6.50;1.52;;;;;;;9.30;76.45;101307.34;5002727;28;20108;-51
2021/12/15 06:17:00;;;;;;;6.82;1.83;;;;;;;9.31;76.25;101309.09;4997234;28;20054;-55
2021/12/15 06:19:27;;;;;;;4.10;1.30;;;;;;;9.32;76.40;101295.34;4997248;28;20045;-51
2021/12/15 06:21:54;;;;;;;7.05;1.95;;;;;;;9.33;76.27;101289.31;5006543;28;20107;-54
2021/12/15 06:24:21;;;;;;;3.47;1.00;;;;;;;9.34;76.14;101294.53;4996795;28;20058;-55
2021/12/15 06:26:48;;;;;;;3.40;1.30;;;;;;;9.37;76.36;101299.78;4999880;28;20050;-53
2021/12/15 06:29:15;;;;;;;4.18;1.77;;;;;;;9.37;76.04;101297.19;5001337;28;20493;-55
2021/12/15 06:31:42;;;;;;;7.18;2.08;;;;;;;9.39;76.04;101307.53;5001072;28;20481;-54
2021/12/15 06:34:09;;;;;;;4.65;1.38;;;;;;;9.40;75.97;101309.31;4999580;28;20046;-52
2021/12/15 06:36:36;;;;;;;4.47;2.35;;;;;;;9.44;76.19;101318.88;5001560;28;20450;-54
2021/12/15 06:39:05;;;;;;;6.63;1.40;;;;;;;9.46;75.89;101322.34;5002411;28;20101;-51
2021/12/15 06:41:32;;;;;;;3.25;1.38;;;;;;;9.46;76.19;101319.78;5002078;28;20147;-54
2021/12/15 06:43:59;;;;;;;5.60;1.70;;;;;;;9.48;76.21;101318.09;5004279;28;20076;-54
2021/12/15 06:46:57;;;;;;;7.10;1.58;;;;;;;9.52;75.41;101325.09;5006067;28;20048;-55
2021/12/15 07:00:25;;;;;;;3.60;1.70;;;;;;;9.60;75.53;101337.31;4998374;28;20089;-54
2021/12/15 07:02:52;;;;;;;2.75;1.40;;;;;;;9.59;75.88;101340.75;5001096;28;20109;-55
2021/12/15 07:05:21;;;;;;;4.78;1.20;;;;;;;9.63;75.61;101342.56;5003734;28;20137;-52
2021/12/15 07:07:49;;;;;;;5.60;1.33;;;;;;;9.65;75.44;101351.22;4998956;28;20042;-51
2021/12/15 07:10:21;;;;;;;4.20;2.30;;;;;;;9.66;75.19;101341.75;5006833;28;20738;-52
2021/12/15 07:12:49;;;;;;;4.65;1.33;;;;;;;9.67;75.26;101349.56;5004554;28;20050;-52
2021/12/15 07:15:16;;;;;;;3.00;2.65;;;;;;;9.66;75.35;101352.97;4996940;28;20422;-52
2021/12/15 07:17:48;;;;;;;4.97;1.20;;;;;;;9.69;75.43;101358.22;5001029;28;20062;-54
2021/12/15 07:20:32;;;;;;;4.63;1.52;;;;;;;9.68;74.85;101359.06;4995756;28;20058;-52
2021/12/15 07:23:01;;;;;;;4.35;1.58;;;;;;;9.71;75.23;101356.56;4993224;28;20045;-54
2021/12/15 07:25:28;;;;;;;5.28;1.15;;;;;;;9.72;74.60;101358.28;5001849;28;20046;-54
2021/12/15 07:27:55;;;;;;;4.88;1.13;;;;;;;9.73;74.77;101349.69;4998349;28;20096;-54
2021/12/15 07:30:23;;;;;;;4.03;2.38;;;;;;;9.73;74.66;101354.84;5001441;28;20433;-54
2021/12/15 07:32:50;;;;;;;4.15;1.50;;;;;;;9.72;74.46;101371.22;5004376;28;20478;-53
2021/12/15 07:35:19;;;;;;;5.22;1.23;;;;;;;9.75;74.37;101370.41;4998056;28;20058;-54
2021/12/15 07:37:46;;;;;;;3.17;1.23;;;;;;;9.75;74.62;101368.72;5001812;28;20062;-55
2021/12/15 07:40:20;;;;;;;5.47;1.00;;;;;;;9.77;74.90;101376.50;4999000;28;20054;-55
2021/12/15 07:42:56;;;;;;;2.20;1.05;;;;;;;9.76;74.55;101375.63;4998654;28;20054;-54
2021/12/15 07:45:25;;;;;;;4.35;0.93;;;;;;;9.75;74.51;101383.34;4995165;28;20055;-48
2021/12/15 07:47:54;;;;;;;5.63;1.30;;;;;;;9.75;74.97;101389.41;5000615;28;20042;-55
2021/12/15 07:50:22;;;;;;;6.22;2.50;;;;;;;9.76;74.49;101390.25;4998560;28;20461;-54
2021/12/15 07:52:50;;;;;;;7.15;1.20;;;;;;;9.77;74.03;101392.03;4988304;28;20198;-54
2021/12/15 07:55:18;;;;;;;3.90;1.10;;;;;;;9.77;74.53;101398.06;4998443;28;20076;-53
2021/12/15 07:57:45;;;;;;;2.80;1.50;;;;;;;9.78;74.86;101398.94;4997624;28;20052;-54
2021/12/15 08:00:12;;;;;;;5.22;1.20;;;;;;;9.80;74.51;101398.97;4992097;28;20045;-54
2021/12/15 08:02:40;;;;;;;5.57;1.10;;;;;;;9.80;74.18;101401.56;4998635;28;20049;-55
2021/12/15 08:05:08;;;;;;;2.35;0.90;;;;;;;9.80;74.68;101397.28;4994207;28;21447;-51
2021/12/15 08:07:34;;;;;;;4.88;2.70;;;;;;;9.79;74.80;101399.84;4994671;28;20429;-55
2021/12/15 08:10:06;;;;;;;5.65;1.50;;;;;;;9.77;74.30;101403.25;4995512;28;20108;-55
2021/12/15 08:12:32;;;;;;;7.13;1.52;;;;;;;9.76;74.01;101401.50;4994046;28;20104;-54
2021/12/15 08:14:59;;;;;;;6.95;1.58;;;;;;;9.75;74.68;101399.75;4997100;28;20050;-53
2021/12/15 08:17:25;;;;;;;7.60;1.60;;;;;;;9.75;74.63;101404.94;4997012;28;20058;-55
2021/12/15 08:19:52;;;;;;;8.13;2.65;;;;;;;9.75;74.06;101407.53;5001090;28;20371;-53
2021/12/15 08:22:19;;;;;;;4.13;1.25;;;;;;;9.75;74.72;101412.69;4997022;28;20108;-54
2021/12/15 08:24:45;;;;;;;8.50;1.67;;;;;;;9.75;74.47;101417.88;5000243;28;20057;-51
2021/12/15 08:27:12;;;;;;;6.63;1.27;;;;;;;9.77;74.53;101417.91;4997807;28;20050;-53
2021/12/15 08:29:38;;;;;;;4.22;1.52;;;;;;;9.76;74.39;101417.03;4999511;28;20041;-50
2021/12/15 08:32:05;;;;;;;4.22;1.35;;;;;;;9.75;74.64;101412.69;5000877;28;20555;-54
2021/12/15 08:34:32;;;;;;;3.40;1.27;;;;;;;9.73;74.35;101406.59;4997801;28;20058;-54
2021/12/15 08:36:59;;;;;;;5.13;1.50;;;;;;;9.75;74.80;101425.63;4998549;28;20042;-50
2021/12/15 08:39:25;;;;;;;3.83;1.25;;;;;;;9.77;74.78;101408.41;4997950;28;20046;-53
2021/12/15 08:41:52;;;;;;;6.10;1.10;;;;;;;9.75;74.67;101409.22;4998435;28;20046;-53
2021/12/15 08:44:19;;;;;;;4.60;2.35;;;;;;;9.73;74.27;101406.59;4997016;28;20094;-53
2021/12/15 08:46:47;;;;;;;7.68;1.70;;;;;;;9.73;74.57;101405.75;4997611;28;20050;-55
2021/12/15 08:49:18;;;;;;;3.78;2.38;;;;;;;9.72;74.44;101414.31;4996582;28;20442;-54
2021/12/15 08:51:46;;;;;;;5.32;2.00;;;;;;;9.74;74.64;101418.72;4994634;28;20050;-52
2021/12/15 08:54:16;;;;;;;8.27;4.88;;;;;;;9.79;74.56;101420.53;4997178;28;20481;-53
2021/12/15 08:56:45;;;;;;;13.18;6.30;;;;;;;9.83;74.77;101432.69;4995347;28;20054;-54
2021/12/15 08:59:12;;;;;;;10.70;5.13;;;;;;;9.89;74.84;101432.81;4997070;28;20041;-53
2021/12/15 09:01:42;;;;;;;11.27;3.17;;;;;;;9.93;74.75;101434.63;4993666;28;20426;-54
2021/12/15 09:04:10;;;;;;;9.02;1.95;;;;;;;9.94;74.52;101428.63;5000034;28;20058;-47
2021/12/15 09:06:39;;;;;;;7.70;2.22;;;;;;;9.95;74.40;101432.97;4998889;28;20069;-53
2021/12/15 09:09:08;;;;;;;10.57;2.97;;;;;;;10.03;74.55;101434.00;5004518;28;21074;-54
2021/12/15 09:11:36;;;;;;;10.60;2.05;;;;;;;10.11;74.13;101433.31;5000066;28;20053;-52
2021/12/15 09:14:04;;;;;;;5.03;2.20;;;;;;;10.12;74.36;101437.63;4996399;28;20067;-54
2021/12/15 09:16:32;;;;;;;8.82;2.72;;;;;;;10.12;74.45;101435.03;5003228;28;20406;-53
2021/12/15 09:19:00;;;;;;;8.10;3.22;;;;;;;10.14;74.50;101441.13;4995586;28;20454;-53
2021/12/15 09:21:30;;;;;;;12.00;5.10;;;;;;;10.13;74.16;101448.03;5000459;28;20041;-54
2021/12/15 09:23:59;;;;;;;9.48;4.63;;;;;;;10.13;74.36;101447.13;4996667;28;20080;-54
2021/12/15 09:26:26;;;;;;;5.82;2.03;;;;;;;10.15;74.68;101440.28;4998492;28;20069;-50
2021/12/15 09:28:54;;;;;;;10.45;2.33;;;;;;;10.13;73.71;101441.97;4999806;28;20078;-49
2021/12/15 09:31:21;;;;;;;5.03;1.30;;;;;;;10.13;74.62;101447.13;5000546;28;20050;-53
2021/12/15 09:33:52;;;;;;;5.63;1.50;;;;;;;10.13;74.05;101445.44;4998877;28;20042;-53
2021/12/15 09:36:20;;;;;;;4.95;1.88;;;;;;;10.13;74.24;101442.84;4999515;28;20068;-54
2021/12/15 09:38:51;;;;;;;3.88;1.30;;;;;;;10.13;74.00;101447.13;4998096;28;20064;-53
2021/12/15 09:41:18;;;;;;;;;;;;;;;10.02;74.15;101447.78;4993449;28;20060;-53
2021/12/15 09:43:48;;;;;;;5.13;2.03;;;;;;;10.13;74.60;101457.50;5002651;28;19972;-50
2021/12/15 09:46:28;;;;;;;5.22;1.60;;;;;;;10.15;74.48;101450.66;4999950;28;20136;-53
2021/12/15 09:57:26;;;;;;;5.93;1.95;;;;;;;10.29;74.10;101449.22;4994463;28;20054;-51
2021/12/15 10:02:58;;;;;;;17.50;4.63;;;;;;;10.41;74.60;101447.75;5003479;28;20062;-50
2021/12/15 10:11:29;;;;;;;14.82;3.70;;;;;;;10.69;74.01;101453.50;4996498;28;20050;-52
2021/12/15 10:19:40;;;;;;;8.43;2.75;;;;;;;10.73;74.26;101465.66;4995598;28;20050;-52
2021/12/15 10:22:16;;;;;;;12.68;4.35;;;;;;;10.77;73.88;101470.06;4997917;28;20055;-54
2021/12/15 10:24:51;;;;;;;8.70;3.55;;;;;;;10.77;74.43;101472.66;4997263;28;20405;-53
2021/12/15 10:27:37;;;;;;;7.00;2.45;;;;;;;10.75;73.89;101473.47;4997992;28;20084;-52
2021/12/15 10:30:10;;;;;;;7.35;3.13;;;;;;;10.75;74.08;101478.66;5006046;28;20065;-52
2021/12/15 10:32:40;;;;;;;9.35;2.60;;;;;;;10.77;74.26;101483.03;4999417;28;20057;-51
2021/12/15 10:35:15;;;;;;;6.93;2.33;;;;;;;10.76;74.00;101481.28;4994741;28;20112;-51
2021/12/15 10:38:20;;;;;;;6.55;2.30;;;;;;;10.75;74.41;101481.25;5001912;28;20050;-54
2021/12/15 10:40:53;;;;;;;8.75;2.50;;;;;;;10.82;74.06;101480.53;4989422;28;20066;-53
2021/12/15 10:43:24;;;;;;;9.02;2.72;;;;;;;10.88;74.76;101479.78;4995157;28;20119;-53
2021/12/15 10:45:58;;;;;;;5.25;1.90;;;;;;;10.89;74.48;101486.69;4996047;28;20133;-55
2021/12/15 10:48:36;;;;;;;9.30;2.50;;;;;;;10.94;73.73;101485.06;4998642;28;20108;-54
2021/12/15 10:51:27;;;;;;;7.68;2.22;;;;;;;10.92;73.50;101477.25;4994078;28;20062;-54
2021/12/15 10:53:56;;;;;;;8.77;3.50;;;;;;;10.96;73.70;101482.50;4997327;28;20058;-50
2021/12/15 10:56:26;;;;;;;11.63;4.10;;;;;;;11.03;74.18;101482.66;4997133;28;20113;-54
2021/12/15 10:58:57;;;;;;;13.70;4.22;;;;;;;11.12;74.25;101478.47;4999268;28;20534;-54
2021/12/15 11:02:05;;;;;;;10.35;3.20;;;;;;;11.19;72.72;101475.16;4995892;28;20107;-53
2021/12/15 11:04:43;;;;;;;6.75;2.10;;;;;;;11.26;73.58;101471.81;4982973;28;20042;-53
2021/12/15 11:07:32;;;;;;;5.82;2.10;;;;;;;11.30;72.41;101483.13;4989522;28;20045;-52
2021/12/15 11:10:06;;;;;;;6.43;2.88;;;;;;;11.34;72.55;101478.88;4992600;28;20457;-53
2021/12/15 11:13:00;;;;;;;4.38;1.75;;;;;;;11.36;71.50;101484.94;4994693;28;20058;-54
2021/12/15 11:15:30;;;;;;;5.97;2.00;;;;;;;11.40;71.56;101478.97;4993248;28;20441;-53
2021/12/15 11:18:03;;;;;;;14.05;8.32;;;;;;;11.43;71.86;101479.91;4994750;28;20050;-53
2021/12/15 11:20:34;;;;;;;8.63;4.53;;;;;;;11.46;72.61;101479.06;4995472;28;20045;-54
2021/12/15 11:23:04;;;;;;;8.18;3.08;;;;;;;11.46;71.70;101473.88;4992055;28;20050;-52
2021/12/15 11:25:38;;;;;;;6.45;2.63;;;;;;;11.46;72.12;101468.69;4997609;28;20054;-50
2021/12/15 11:28:18;;;;;;;7.07;2.63;;;;;;;11.46;71.22;101471.28;4994901;28;20050;-51
2021/12/15 11:30:57;;;;;;;4.85;1.98;;;;;;;11.50;72.20;101470.50;4988781;28;20112;-54
2021/12/15 11:33:30;;;;;;;7.50;4.05;;;;;;;11.52;70.96;101468.78;4995347;28;20064;-52
2021/12/15 11:36:17;;;;;;;6.03;2.58;;;;;;;11.52;71.74;101466.19;5002339;28;20529;-55
2021/12/15 11:38:51;;;;;;;7.88;2.90;;;;;;;11.55;71.95;101463.63;5007203;28;20533;-54
2021/12/15 11:41:33;;;;;;;8.73;2.15;;;;;;;11.61;72.14;101461.97;5004690;28;20474;-52
2021/12/15 11:44:02;;;;;;;5.40;1.92;;;;;;;11.64;71.27;101464.63;5006368;28;20494;-52
2021/12/15 11:46:32;;;;;;;4.80;2.05;;;;;;;11.63;70.74;101462.88;4998416;28;20041;-52
2021/12/15 11:49:07;;;;;;;7.72;2.53;;;;;;;11.62;72.15;101474.13;5006339;28;20070;-54
2021/12/15 11:51:54;;;;;;;5.88;2.05;;;;;;;11.62;72.04;101468.94;5000622;28;20107;-52
2021/12/15 11:54:25;;;;;;;6.80;2.35;;;;;;;11.67;71.37;101464.69;5006508;28;20119;-55
2021/12/15 11:56:56;;;;;;;7.30;2.08;;;;;;;11.71;72.61;101469.06;5010066;28;20563;-53
2021/12/15 11:59:30;;;;;;;10.38;2.80;;;;;;;11.73;72.02;101477.78;5001349;28;20050;-53
2021/12/15 12:02:05;;;;;;;5.18;2.22;;;;;;;11.77;71.89;101479.56;5000222;28;20085;-53
2021/12/15 12:04:36;;;;;;;8.18;2.70;;;;;;;11.81;71.66;101481.34;5000069;28;20133;-54
2021/12/15 12:07:20;;;;;;;5.10;1.92;;;;;;;11.80;71.71;101474.41;4994104;28;20050;-54
2021/12/15 12:09:52;;;;;;;5.30;2.28;;;;;;;11.85;71.87;101481.41;5004969;28;20049;-54
2021/12/15 12:12:23;;;;;;;8.10;1.98;;;;;;;11.87;71.81;101485.75;4996600;28;20046;-54
2021/12/15 12:14:49;;;;;;;4.85;2.35;;;;;;;11.85;71.32;101486.59;5001768;28;20104;-54
2021/12/15 12:17:21;;;;;;;9.43;2.25;;;;;;;11.84;71.74;101480.53;5004868;28;20053;-52
2021/12/15 12:19:53;;;;;;;5.05;2.13;;;;;;;11.82;71.78;101483.09;5004316;28;20050;-51
2021/12/15 12:22:21;;;;;;;3.80;1.95;;;;;;;11.81;70.38;101476.16;5007445;28;20097;-54
2021/12/15 12:24:51;;;;;;;6.05;1.63;;;;;;;11.85;71.50;101481.41;5002300;28;20062;-52
2021/12/15 12:27:20;;;;;;;6.68;1.98;;;;;;;11.85;71.44;101474.47;5007293;28;20658;-52
2021/12/15 12:29:47;;;;;;;15.98;3.40;;;;;;;11.88;71.07;101468.44;5000713;28;20050;-52
2021/12/15 12:32:18;;;;;;;18.25;5.00;;;;;;;11.85;70.50;101463.22;5002515;28;21487;-54
2021/12/15 12:34:44;;;;;;;34.63;7.75;;;;;;;11.82;69.77;101470.09;5001186;28;20061;-53
2021/12/15 12:37:13;;;;;;;22.45;6.28;;;;;;;11.80;71.19;101473.53;5004300;28;20050;-55
2021/12/15 12:39:45;;;;;;;8.55;3.67;;;;;;;11.81;71.57;101470.09;5004456;28;20053;-54
2021/12/15 12:42:29;;;;;;;8.13;3.22;;;;;;;11.81;70.45;101481.34;4997751;28;20052;-52
2021/12/15 12:45:13;;;;;;;13.13;4.93;;;;;;;11.88;70.61;101471.91;5005740;28;20097;-51
2021/12/15 12:47:58;;;;;;;11.73;4.18;;;;;;;11.94;71.40;101471.13;5001526;28;20107;-54